Time;durP1;ratioP1;P1;durP2;ratioP2;P2;SDS_P1;SDS_P2;PMS_P1;PMS_P2;Temp;Humidity;BMP_temperature;BMP_pressure;BME280_temperature;BME280_humidity;BME280_pressure;Samples;Min_cycle;Max_cycle;Signal;HPM_P1;HPM_P2
2022/08/08 04:01:22;;;;;;;8.43;7.72;;;13.60;99.90;;;;;;5434018;23;20530;-70
2022/08/08 04:03:49;;;;;;;8.85;8.05;;;13.60;99.90;;;;;;4895027;29;20831;-70
2022/08/08 04:06:16;;;;;;;7.97;7.25;;;13.60;99.90;;;;;;4893069;29;20218;-70
2022/08/08 04:08:43;;;;;;;7.47;6.88;;;13.60;99.90;;;;;;4895571;29;20579;-69
2022/08/08 04:11:10;;;;;;;9.98;9.07;;;13.70;99.90;;;;;;4893324;29;20709;-69
2022/08/08 04:13:37;;;;;;;8.48;7.72;;;13.70;99.90;;;;;;4892851;29;20242;-70
2022/08/08 04:16:04;;;;;;;8.50;7.80;;;13.70;99.90;;;;;;4890765;29;20629;-70
2022/08/08 04:18:32;;;;;;;8.77;7.97;;;13.70;99.90;;;;;;4899501;29;20218;-70
2022/08/08 04:20:59;;;;;;;8.20;7.47;;;13.70;99.90;;;;;;4904766;29;20522;-77
2022/08/08 04:23:26;;;;;;;7.67;7.17;;;13.70;99.90;;;;;;4899246;29;20213;-70
2022/08/08 04:25:52;;;;;;;8.33;7.70;;;13.70;99.90;;;;;;4892154;29;20530;-70
2022/08/08 04:28:19;;;;;;;9.23;8.20;;;13.80;99.90;;;;;;4895514;29;20584;-71
2022/08/08 04:30:47;;;;;;;8.00;7.33;;;13.80;99.90;;;;;;4893381;29;20493;-71
2022/08/08 04:33:14;;;;;;;8.60;8.00;;;13.90;99.90;;;;;;4894305;29;20500;-70
2022/08/08 04:35:42;;;;;;;8.70;7.90;;;14.00;99.90;;;;;;4891741;29;20490;-70
2022/08/08 04:38:08;;;;;;;7.10;6.60;;;14.10;99.90;;;;;;4891456;29;20482;-71
2022/08/08 04:40:35;;;;;;;8.23;7.63;;;14.20;99.90;;;;;;4894677;29;20509;-70
2022/08/08 04:43:03;;;;;;;8.00;7.47;;;14.30;99.90;;;;;;4891163;29;21128;-71
2022/08/08 04:45:30;;;;;;;7.80;7.30;;;14.50;99.90;;;;;;4892971;29;20481;-71
2022/08/08 04:47:58;;;;;;;7.37;6.77;;;15.00;99.90;;;;;;4892677;29;20480;-70
2022/08/08 04:50:25;;;;;;;6.60;6.10;;;15.60;99.90;;;;;;4894845;29;20555;-70
2022/08/08 04:52:54;;;;;;;6.57;6.20;;;16.30;99.90;;;;;;4888301;29;20500;-69
2022/08/08 04:55:21;;;;;;;7.03;6.50;;;16.90;99.90;;;;;;4894095;29;20470;-71
2022/08/08 04:57:47;;;;;;;7.27;6.77;;;17.50;99.90;;;;;;4893656;29;20475;-68
2022/08/08 05:00:14;;;;;;;7.10;6.70;;;17.90;99.90;;;;;;4893079;29;20472;-71
2022/08/08 05:02:41;;;;;;;6.60;6.30;;;18.10;99.90;;;;;;4891922;29;20475;-70
2022/08/08 05:05:09;;;;;;;6.67;6.17;;;18.10;99.90;;;;;;4890724;29;20600;-68
2022/08/08 05:07:35;;;;;;;6.90;6.40;;;18.30;99.90;;;;;;4893954;29;20547;-68
2022/08/08 05:10:04;;;;;;;6.63;6.23;;;18.40;99.90;;;;;;4893761;29;20477;-68
2022/08/08 05:12:31;;;;;;;7.40;6.80;;;18.40;99.90;;;;;;4894170;29;20614;-69
2022/08/08 05:14:57;;;;;;;7.43;7.00;;;18.30;99.90;;;;;;4891048;29;20484;-69
2022/08/08 05:17:24;;;;;;;7.17;6.80;;;18.00;99.90;;;;;;4895135;29;20465;-69
2022/08/08 05:19:51;;;;;;;6.80;6.40;;;17.80;99.90;;;;;;4890814;29;20541;-70
2022/08/08 05:22:17;;;;;;;7.77;7.30;;;17.70;99.90;;;;;;4894994;29;20487;-70
2022/08/08 05:24:45;;;;;;;8.17;7.50;;;17.50;99.90;;;;;;4890420;29;20527;-69
2022/08/08 05:27:13;;;;;;;8.63;8.03;;;17.30;99.90;;;;;;4893936;29;20534;-69
2022/08/08 05:29:39;;;;;;;7.83;7.23;;;17.30;99.90;;;;;;4892337;29;20478;-70
2022/08/08 05:32:07;;;;;;;8.70;7.93;;;17.10;99.90;;;;;;4894756;29;20876;-70
2022/08/08 05:34:40;;;;;;;7.47;6.93;;;17.00;99.90;;;;;;4889524;29;21220;-70
2022/08/08 05:37:08;;;;;;;7.30;6.80;;;16.90;99.90;;;;;;4894203;29;20496;-70
2022/08/08 05:39:37;;;;;;;7.70;7.17;;;16.80;99.90;;;;;;4890553;29;20525;-70
2022/08/08 05:42:05;;;;;;;7.73;7.20;;;16.80;99.90;;;;;;4892007;29;20520;-70
2022/08/08 05:44:41;;;;;;;8.30;7.77;;;16.70;99.90;;;;;;4890234;29;20478;-70
2022/08/08 05:47:08;;;;;;;6.97;6.50;;;16.70;99.90;;;;;;4893815;29;20476;-70
2022/08/08 05:49:35;;;;;;;8.50;7.67;;;16.70;99.90;;;;;;4887787;29;20490;-70
2022/08/08 05:52:03;;;;;;;7.43;6.87;;;16.60;99.90;;;;;;4892618;29;20497;-71
2022/08/08 05:54:29;;;;;;;7.43;6.73;;;16.60;99.90;;;;;;4894219;29;20908;-71
2022/08/08 05:56:56;;;;;;;6.97;6.23;;;16.70;99.90;;;;;;4893959;29;20477;-71
2022/08/08 05:59:24;;;;;;;7.13;6.53;;;16.70;99.90;;;;;;4896109;29;20478;-71
2022/08/08 06:01:55;;;;;;;7.63;6.13;;;16.80;99.90;;;;;;4901357;29;20509;-70
2022/08/08 06:04:25;;;;;;;9.03;6.60;;;16.80;99.90;;;;;;4903646;29;20488;-70
2022/08/08 06:06:53;;;;;;;6.30;5.70;;;16.70;99.90;;;;;;4905778;29;20536;-70
2022/08/08 06:09:27;;;;;;;6.33;5.90;;;16.80;99.90;;;;;;4908163;29;20549;-71
2022/08/08 06:11:59;;;;;;;5.70;5.23;;;17.20;99.90;;;;;;4899136;29;20502;-71
2022/08/08 06:14:27;;;;;;;5.03;4.83;;;18.10;99.90;;;;;;4896706;29;20539;-71
2022/08/08 06:16:58;;;;;;;5.30;5.00;;;19.10;99.90;;;;;;4896921;29;20892;-71
2022/08/08 06:19:26;;;;;;;5.93;4.70;;;19.90;99.90;;;;;;4894190;29;20538;-70
2022/08/08 06:21:53;;;;;;;5.17;4.80;;;20.70;99.90;;;;;;4894721;29;21352;-71
2022/08/08 06:24:20;;;;;;;4.03;3.90;;;21.20;99.90;;;;;;4898089;29;20467;-69
2022/08/08 06:26:53;;;;;;;4.40;4.10;;;21.60;99.90;;;;;;4894683;29;20504;-72
2022/08/08 06:29:25;;;;;;;4.60;4.40;;;22.00;99.90;;;;;;4897568;29;20476;-71
2022/08/08 06:31:57;;;;;;;4.27;4.07;;;22.50;99.90;;;;;;4893965;29;20604;-70
2022/08/08 06:34:32;;;;;;;4.00;3.80;;;22.80;99.90;;;;;;4896416;29;21064;-67
2022/08/08 06:37:02;;;;;;;3.60;3.50;;;22.50;99.90;;;;;;4896041;29;20819;-69
2022/08/08 06:39:30;;;;;;;3.60;3.40;;;23.10;99.90;;;;;;4895418;29;20832;-68
2022/08/08 06:41:58;;;;;;;3.60;3.40;;;23.30;99.90;;;;;;4895170;29;20996;-69
2022/08/08 06:44:26;;;;;;;4.10;3.97;;;23.70;99.90;;;;;;4894772;29;20463;-69
2022/08/08 06:46:53;;;;;;;3.90;3.80;;;24.10;99.90;;;;;;4893517;29;20934;-69
2022/08/08 06:49:21;;;;;;;3.83;3.67;;;24.30;99.90;;;;;;4895663;29;20541;-69
2022/08/08 06:51:48;;;;;;;2.90;2.90;;;24.60;99.90;;;;;;4894734;29;20499;-69
2022/08/08 06:54:14;;;;;;;3.60;3.40;;;24.90;99.90;;;;;;4892466;29;20495;-68
2022/08/08 06:56:43;;;;;;;3.60;3.50;;;25.00;99.90;;;;;;4896778;29;20494;-68
2022/08/08 06:59:10;;;;;;;3.17;3.00;;;25.30;99.90;;;;;;4895593;29;20474;-69
2022/08/08 07:01:43;;;;;;;3.13;3.03;;;25.50;99.90;;;;;;4894439;29;20497;-69
2022/08/08 07:04:16;;;;;;;3.13;3.03;;;25.70;99.90;;;;;;4893435;29;20474;-69
2022/08/08 07:06:50;;;;;;;3.30;3.10;;;25.90;99.90;;;;;;4891206;29;20482;-69
2022/08/08 07:09:19;;;;;;;3.87;3.57;;;26.00;99.40;;;;;;4897798;29;20576;-69
2022/08/08 07:11:50;;;;;;;2.57;2.57;;;26.20;98.70;;;;;;4896631;29;20502;-70
2022/08/08 07:14:21;;;;;;;3.10;3.00;;;26.70;98.80;;;;;;4896172;29;20579;-70
2022/08/08 07:16:57;;;;;;;3.17;3.00;;;26.90;97.40;;;;;;4894367;29;20981;-69
2022/08/08 07:19:33;;;;;;;3.20;3.20;;;27.10;96.50;;;;;;4895990;29;20530;-69
2022/08/08 07:22:04;;;;;;;3.93;3.63;;;26.40;95.30;;;;;;4891979;29;20995;-69
2022/08/08 07:24:35;;;;;;;3.57;3.47;;;26.70;96.30;;;;;;4897388;29;21031;-69
2022/08/08 07:27:06;;;;;;;3.17;2.97;;;26.70;96.20;;;;;;4895074;29;20530;-69
2022/08/08 07:29:35;;;;;;;3.03;3.00;;;27.30;95.00;;;;;;4897668;29;20462;-70
2022/08/08 07:32:03;;;;;;;2.90;2.80;;;27.40;94.30;;;;;;4893708;29;21010;-70
2022/08/08 07:34:30;;;;;;;2.70;2.70;;;27.60;93.80;;;;;;4895457;29;21011;-69
2022/08/08 07:36:58;;;;;;;4.10;3.80;;;27.50;93.90;;;;;;4893628;29;20573;-71
2022/08/08 07:39:29;;;;;;;3.47;3.40;;;27.00;94.50;;;;;;4895442;29;20546;-70
2022/08/08 07:41:57;;;;;;;3.20;2.97;;;26.40;95.70;;;;;;4892400;29;20571;-70
2022/08/08 07:44:25;;;;;;;3.83;3.73;;;25.70;96.10;;;;;;4896735;29;20495;-70
2022/08/08 07:46:51;;;;;;;4.17;3.97;;;25.30;97.00;;;;;;4894044;29;20496;-70
2022/08/08 07:49:18;;;;;;;3.80;3.60;;;25.00;97.90;;;;;;4896368;29;20880;-69
2022/08/08 07:51:45;;;;;;;4.33;4.03;;;24.90;98.90;;;;;;4892023;29;21026;-70
2022/08/08 07:54:20;;;;;;;4.27;4.07;;;24.70;99.30;;;;;;4895075;29;21017;-70
2022/08/08 07:56:58;;;;;;;4.17;4.00;;;24.50;99.80;;;;;;4893257;29;20562;-70
2022/08/08 07:59:30;;;;;;;4.03;3.83;;;24.00;99.90;;;;;;4894997;29;20471;-70
2022/08/08 08:01:59;;;;;;;4.27;3.97;;;24.00;99.90;;;;;;4893195;29;20496;-68
2022/08/08 08:04:32;;;;;;;4.03;3.83;;;24.00;99.90;;;;;;4895095;29;20476;-70
2022/08/08 08:07:00;;;;;;;4.83;3.70;;;24.00;99.90;;;;;;4894001;29;20479;-68
2022/08/08 08:09:31;;;;;;;4.13;3.93;;;23.70;99.90;;;;;;4888732;29;20475;-70
2022/08/08 08:11:59;;;;;;;3.73;3.53;;;23.50;99.90;;;;;;4895590;29;20517;-69
2022/08/08 08:14:33;;;;;;;3.83;3.63;;;23.40;99.90;;;;;;4893341;29;21043;-69
2022/08/08 08:17:00;;;;;;;3.97;3.57;;;23.20;99.90;;;;;;4893563;29;20474;-67
2022/08/08 08:19:31;;;;;;;3.80;3.50;;;22.90;99.90;;;;;;4895121;29;20480;-69
2022/08/08 08:21:58;;;;;;;3.67;3.57;;;22.90;99.90;;;;;;4893345;29;20549;-69
2022/08/08 08:24:26;;;;;;;4.20;4.00;;;22.80;99.90;;;;;;4894012;29;20479;-69
2022/08/08 08:26:53;;;;;;;4.47;4.20;;;22.60;99.90;;;;;;4893103;29;20557;-69
2022/08/08 08:29:21;;;;;;;4.30;4.07;;;22.50;99.90;;;;;;4891575;29;20477;-69
2022/08/08 08:31:48;;;;;;;3.30;3.20;;;22.50;99.90;;;;;;4889997;29;20497;-69
2022/08/08 08:34:14;;;;;;;4.07;3.87;;;22.30;99.90;;;;;;4893629;29;20847;-69
2022/08/08 08:36:41;;;;;;;3.30;3.20;;;22.30;99.90;;;;;;4895819;29;20502;-69
2022/08/08 08:39:08;;;;;;;3.60;3.50;;;22.20;99.90;;;;;;4893493;29;20476;-70
2022/08/08 08:41:36;;;;;;;3.67;3.33;;;22.10;99.90;;;;;;4892376;29;21161;-69
2022/08/08 08:44:03;;;;;;;4.10;3.83;;;22.00;99.90;;;;;;4893450;29;20479;-69
2022/08/08 08:46:33;;;;;;;3.90;3.70;;;22.00;99.90;;;;;;4892181;29;20544;-69
2022/08/08 08:49:01;;;;;;;4.30;4.00;;;22.00;99.90;;;;;;4893947;29;20477;-69
2022/08/08 08:51:29;;;;;;;4.37;4.07;;;22.00;99.90;;;;;;4892114;29;20498;-70
2022/08/08 08:53:56;;;;;;;9.83;3.93;;;22.10;99.90;;;;;;4892200;29;20945;-70
2022/08/08 08:56:25;;;;;;;4.10;3.80;;;22.20;99.90;;;;;;4894629;29;20658;-69
2022/08/08 08:58:52;;;;;;;4.00;3.70;;;22.20;99.90;;;;;;4892117;29;20557;-69
2022/08/08 09:01:22;;;;;;;3.10;2.90;;;22.20;99.90;;;;;;4889504;29;21208;-69
2022/08/08 09:03:51;;;;;;;3.93;3.73;;;22.30;99.90;;;;;;4893633;29;20865;-69
2022/08/08 09:06:20;;;;;;;6.60;3.53;;;22.30;99.90;;;;;;4892754;29;20485;-71
2022/08/08 09:08:53;;;;;;;3.73;3.53;;;22.30;99.90;;;;;;4892954;29;20567;-69
2022/08/08 09:11:21;;;;;;;4.10;3.90;;;22.30;99.90;;;;;;4890931;29;20504;-70
2022/08/08 09:13:48;;;;;;;3.43;3.07;;;22.30;99.90;;;;;;4891299;29;20513;-70
2022/08/08 09:16:15;;;;;;;3.40;3.20;;;22.40;99.90;;;;;;4893911;29;20478;-68
2022/08/08 09:18:43;;;;;;;3.60;3.40;;;22.40;99.90;;;;;;4893207;29;20958;-70
2022/08/08 09:21:13;;;;;;;3.43;3.33;;;22.30;99.90;;;;;;4892475;29;20524;-70
2022/08/08 09:23:40;;;;;;;4.57;4.30;;;22.40;99.90;;;;;;4887972;29;20826;-70
2022/08/08 09:26:15;;;;;;;3.60;3.50;;;22.40;99.90;;;;;;4893620;29;20840;-71
2022/08/08 09:28:44;;;;;;;3.90;3.63;;;22.40;99.90;;;;;;4888253;29;20887;-70
2022/08/08 09:31:14;;;;;;;4.57;4.20;;;22.40;99.90;;;;;;4891170;29;20489;-71
2022/08/08 09:33:44;;;;;;;3.73;3.60;;;22.50;99.90;;;;;;4888063;29;20477;-70
2022/08/08 09:36:20;;;;;;;4.27;3.93;;;22.50;99.90;;;;;;4892021;29;20473;-70
2022/08/08 09:38:53;;;;;;;5.13;4.83;;;22.50;99.90;;;;;;4888254;29;20923;-69
2022/08/08 09:41:30;;;;;;;3.67;3.57;;;22.50;99.90;;;;;;4890746;29;20488;-70
2022/08/08 09:44:04;;;;;;;4.43;4.13;;;22.50;99.90;;;;;;4893829;29;20473;-69
2022/08/08 09:46:32;;;;;;;3.67;3.50;;;22.50;99.90;;;;;;4893380;29;20533;-69
2022/08/08 09:49:02;;;;;;;4.27;4.07;;;22.50;99.90;;;;;;4895086;29;21034;-69
2022/08/08 09:51:31;;;;;;;3.67;3.47;;;22.50;99.90;;;;;;4891764;29;20498;-70
2022/08/08 09:54:03;;;;;;;4.20;4.00;;;22.50;99.90;;;;;;4897460;29;20505;-69
2022/08/08 09:56:36;;;;;;;3.83;3.73;;;22.50;99.90;;;;;;4891599;29;20536;-67
2022/08/08 09:59:05;;;;;;;4.40;4.20;;;22.70;99.90;;;;;;4893927;29;21034;-68
2022/08/08 10:01:32;;;;;;;4.67;4.00;;;22.90;99.90;;;;;;4891645;29;20505;-69
2022/08/08 10:04:01;;;;;;;4.53;4.23;;;22.90;99.90;;;;;;4894059;29;20549;-68
2022/08/08 10:06:27;;;;;;;4.10;3.50;;;22.80;99.90;;;;;;4893132;29;20837;-69
2022/08/08 10:08:56;;;;;;;4.33;4.20;;;22.90;99.90;;;;;;4892453;29;20489;-69
2022/08/08 10:11:23;;;;;;;4.53;4.23;;;23.00;99.90;;;;;;4887083;29;20589;-69
2022/08/08 10:13:55;;;;;;;4.87;4.57;;;23.00;99.90;;;;;;4893653;29;20474;-69
2022/08/08 10:16:22;;;;;;;3.40;3.30;;;23.10;99.90;;;;;;4892282;29;20471;-69
2022/08/08 10:18:49;;;;;;;3.63;3.50;;;23.40;99.90;;;;;;4892509;29;20475;-68
2022/08/08 10:21:18;;;;;;;4.63;4.33;;;23.60;99.90;;;;;;4889552;29;20885;-68
2022/08/08 10:23:47;;;;;;;4.20;3.90;;;23.80;99.90;;;;;;4894620;29;20467;-69
2022/08/08 10:26:22;;;;;;;4.40;4.10;;;23.90;99.70;;;;;;4891186;29;20480;-68
2022/08/08 10:28:55;;;;;;;4.77;4.50;;;24.10;99.90;;;;;;4894051;29;20849;-68
2022/08/08 10:34:13;;;;;;;3.53;3.43;;;24.30;98.40;;;;;;4892676;29;20498;-68
2022/08/08 10:36:43;;;;;;;3.77;3.67;;;24.30;98.10;;;;;;4892709;29;20573;-68
2022/08/08 10:39:11;;;;;;;4.43;4.13;;;24.30;98.50;;;;;;4894759;29;20472;-68
2022/08/08 10:41:41;;;;;;;4.10;3.90;;;24.30;98.80;;;;;;4890599;29;20874;-68
2022/08/08 10:44:12;;;;;;;4.63;4.33;;;24.20;99.20;;;;;;4897324;29;20456;-70
2022/08/08 10:46:39;;;;;;;4.30;3.90;;;24.10;99.10;;;;;;4896647;29;20478;-66
2022/08/08 10:49:05;;;;;;;4.13;3.93;;;24.00;98.40;;;;;;4896794;29;20968;-67
2022/08/08 10:51:37;;;;;;;3.77;3.53;;;24.00;98.80;;;;;;4893307;29;20494;-67
2022/08/08 10:54:04;;;;;;;4.20;4.00;;;24.10;98.30;;;;;;4896096;29;20487;-67
2022/08/08 10:56:33;;;;;;;3.60;3.50;;;24.10;97.60;;;;;;4897169;29;20489;-66
2022/08/08 10:59:04;;;;;;;3.90;3.80;;;24.10;97.30;;;;;;4896843;29;20554;-70
2022/08/08 11:01:31;;;;;;;4.60;4.40;;;24.20;97.60;;;;;;4896561;29;20510;-69
2022/08/08 11:04:00;;;;;;;4.53;4.13;;;24.30;97.00;;;;;;4898209;29;20523;-69
2022/08/08 11:06:30;;;;;;;3.80;3.70;;;24.20;97.40;;;;;;4897589;29;20581;-68
2022/08/08 11:09:05;;;;;;;4.20;3.80;;;24.30;96.70;;;;;;4898024;29;20923;-69
2022/08/08 11:11:38;;;;;;;4.50;4.10;;;24.30;96.50;;;;;;4897541;29;20560;-69
2022/08/08 11:14:06;;;;;;;4.33;3.93;;;24.40;97.30;;;;;;4897059;29;20929;-69
2022/08/08 11:16:35;;;;;;;3.30;3.20;;;24.50;97.00;;;;;;4896652;29;20501;-69
2022/08/08 11:19:05;;;;;;;3.53;3.40;;;24.80;97.10;;;;;;4893674;29;20476;-69
2022/08/08 11:21:35;;;;;;;3.80;3.70;;;24.90;96.30;;;;;;4896089;29;20480;-69
2022/08/08 11:24:05;;;;;;;3.90;3.80;;;25.00;95.50;;;;;;4897285;29;20642;-69
2022/08/08 11:26:37;;;;;;;3.93;3.73;;;25.00;95.50;;;;;;4896196;29;20471;-69
2022/08/08 11:29:07;;;;;;;3.90;3.80;;;25.00;96.10;;;;;;4897642;29;20828;-70
2022/08/08 11:31:38;;;;;;;3.90;3.40;;;25.00;96.50;;;;;;4897531;29;20925;-69
2022/08/08 11:34:05;;;;;;;3.70;3.53;;;24.90;96.60;;;;;;4897325;29;20475;-70
2022/08/08 11:36:33;;;;;;;3.80;3.60;;;24.80;96.90;;;;;;4896899;29;20471;-69
2022/08/08 11:39:01;;;;;;;4.20;4.10;;;24.80;96.50;;;;;;4896381;29;20590;-69
2022/08/08 11:41:29;;;;;;;4.00;3.73;;;24.90;96.40;;;;;;4896777;29;20491;-69
2022/08/08 11:43:57;;;;;;;3.93;3.73;;;24.80;96.30;;;;;;4896048;29;20475;-69
2022/08/08 11:46:26;;;;;;;3.77;3.67;;;24.90;96.50;;;;;;4897326;29;20476;-69
2022/08/08 11:48:53;;;;;;;3.90;3.60;;;24.80;96.10;;;;;;4897638;29;20502;-69
2022/08/08 11:51:23;;;;;;;4.17;3.87;;;24.80;96.00;;;;;;4895042;29;20587;-70
2022/08/08 11:53:50;;;;;;;3.60;3.30;;;24.80;95.90;;;;;;4896494;29;20991;-69
2022/08/08 11:56:22;;;;;;;4.60;4.30;;;24.90;95.80;;;;;;4896418;29;21010;-69
2022/08/08 11:58:50;;;;;;;3.37;3.30;;;24.80;95.50;;;;;;4896184;29;20500;-70
2022/08/08 12:01:17;;;;;;;3.97;3.87;;;24.80;95.60;;;;;;4896962;29;20495;-69
2022/08/08 12:03:48;;;;;;;3.57;3.47;;;24.90;96.40;;;;;;4897316;29;20496;-69
2022/08/08 12:06:17;;;;;;;3.37;3.23;;;24.90;97.40;;;;;;4896841;29;20464;-70
2022/08/08 12:08:45;;;;;;;3.73;3.53;;;24.90;97.60;;;;;;4896714;29;20493;-67
2022/08/08 12:11:13;;;;;;;4.23;3.93;;;25.00;97.30;;;;;;4896315;29;20932;-67
2022/08/08 12:13:41;;;;;;;3.63;3.53;;;25.10;97.00;;;;;;4896683;29;21091;-68
2022/08/08 12:16:09;;;;;;;3.27;3.20;;;24.90;97.00;;;;;;4893941;29;20506;-69
2022/08/08 12:18:49;;;;;;;3.57;3.47;;;24.70;96.60;;;;;;4894912;29;20491;-69
2022/08/08 12:21:24;;;;;;;3.60;3.50;;;24.70;97.20;;;;;;4896506;29;20499;-69
2022/08/08 12:24:03;;;;;;;5.20;4.30;;;24.70;97.40;;;;;;4896802;29;20474;-69
2022/08/08 12:26:37;;;;;;;4.37;4.07;;;24.60;97.10;;;;;;4896200;29;20482;-69
2022/08/08 12:29:28;;;;;;;3.93;3.73;;;24.50;96.90;;;;;;4897202;29;20479;-70
2022/08/08 12:32:03;;;;;;;3.90;3.80;;;24.40;96.70;;;;;;4894293;29;20494;-69
2022/08/08 12:34:41;;;;;;;3.73;3.63;;;24.40;96.80;;;;;;4889100;29;20480;-69
2022/08/08 12:37:11;;;;;;;3.60;3.50;;;24.40;96.50;;;;;;4897934;29;20837;-70
2022/08/08 12:39:38;;;;;;;3.93;3.63;;;24.50;96.90;;;;;;4897380;29;20472;-70
2022/08/08 12:42:05;;;;;;;4.03;3.93;;;24.60;96.50;;;;;;4889613;29;20488;-69
2022/08/08 12:44:32;;;;;;;3.57;3.27;;;24.70;96.30;;;;;;4896989;29;20467;-70
2022/08/08 12:47:00;;;;;;;3.93;3.83;;;24.90;96.20;;;;;;4894454;29;20487;-69
2022/08/08 12:49:28;;;;;;;3.47;3.27;;;25.00;96.10;;;;;;4896483;29;20484;-70
2022/08/08 12:51:57;;;;;;;3.80;3.60;;;25.00;96.20;;;;;;4896335;29;20662;-69
2022/08/08 12:54:26;;;;;;;4.20;3.90;;;24.90;96.20;;;;;;4895940;29;20551;-70
2022/08/08 12:56:53;;;;;;;4.00;3.73;;;24.80;96.60;;;;;;4895269;29;20495;-70
2022/08/08 12:59:22;;;;;;;4.13;3.87;;;24.70;96.90;;;;;;4898862;29;20508;-70
2022/08/08 13:01:51;;;;;;;3.67;3.47;;;24.70;97.00;;;;;;4897152;29;20574;-69
2022/08/08 13:04:19;;;;;;;5.33;3.67;;;24.60;97.00;;;;;;4898462;29;20506;-70
2022/08/08 13:06:53;;;;;;;3.07;2.87;;;24.50;97.30;;;;;;4895445;29;20467;-69
2022/08/08 13:09:31;;;;;;;3.47;3.37;;;24.50;96.90;;;;;;4895892;29;20471;-69
2022/08/08 13:11:58;;;;;;;3.70;3.10;;;24.30;97.30;;;;;;4895419;29;20497;-69
2022/08/08 13:14:37;;;;;;;3.73;3.60;;;24.40;97.60;;;;;;4896097;29;20468;-70
2022/08/08 13:17:05;;;;;;;3.53;3.33;;;24.40;98.00;;;;;;4895862;29;20491;-69
2022/08/08 13:19:32;;;;;;;3.63;3.43;;;24.40;97.80;;;;;;4894816;29;20490;-69
2022/08/08 13:21:59;;;;;;;5.23;3.53;;;24.40;97.60;;;;;;4894146;29;20510;-69
2022/08/08 13:24:26;;;;;;;3.70;3.40;;;24.50;97.50;;;;;;4894927;29;20467;-69
2022/08/08 13:27:06;;;;;;;3.43;3.33;;;24.40;97.00;;;;;;4895149;29;20666;-69
2022/08/08 13:29:33;;;;;;;3.23;3.13;;;24.40;97.30;;;;;;4896110;29;20466;-69
2022/08/08 13:32:03;;;;;;;3.37;3.27;;;24.50;96.60;;;;;;4895460;29;20498;-69
2022/08/08 13:34:30;;;;;;;3.60;3.40;;;24.50;97.30;;;;;;4895820;29;20468;-69
2022/08/08 13:36:57;;;;;;;3.13;2.97;;;24.60;96.50;;;;;;4891109;29;20491;-69
2022/08/08 13:39:24;;;;;;;4.00;3.70;;;24.60;96.70;;;;;;4889575;29;20555;-69
2022/08/08 13:41:54;;;;;;;3.47;3.27;;;24.80;97.20;;;;;;4890538;29;20542;-69
2022/08/08 13:44:26;;;;;;;3.50;3.30;;;24.80;96.80;;;;;;4891120;29;20490;-69
2022/08/08 13:46:54;;;;;;;2.93;2.83;;;24.90;97.50;;;;;;4893217;29;20794;-69
2022/08/08 13:49:22;;;;;;;2.83;2.83;;;24.90;97.60;;;;;;4890861;29;20930;-69
2022/08/08 13:51:56;;;;;;;4.10;3.80;;;24.90;97.10;;;;;;4891080;29;20492;-69
2022/08/08 13:54:24;;;;;;;4.27;3.77;;;24.90;97.60;;;;;;4894004;29;20804;-69
2022/08/08 13:57:07;;;;;;;2.87;2.80;;;24.90;97.80;;;;;;4892114;29;20496;-69
2022/08/08 13:59:39;;;;;;;4.30;3.90;;;24.90;97.90;;;;;;4892777;29;20471;-70
2022/08/08 14:02:14;;;;;;;3.33;3.23;;;25.00;97.60;;;;;;4888468;29;20741;-70
2022/08/08 14:04:56;;;;;;;2.87;2.77;;;25.00;97.60;;;;;;4888767;29;20922;-70
2022/08/08 14:07:24;;;;;;;4.60;2.77;;;24.90;97.50;;;;;;4890082;29;20818;-69
2022/08/08 14:09:53;;;;;;;4.13;3.83;;;25.00;97.70;;;;;;4891654;29;20471;-68
2022/08/08 14:12:24;;;;;;;3.57;3.40;;;25.20;97.40;;;;;;4891349;29;20499;-69
2022/08/08 14:14:52;;;;;;;3.13;3.00;;;25.30;97.50;;;;;;4894590;29;20484;-69
2022/08/08 14:17:20;;;;;;;3.60;3.50;;;25.30;97.30;;;;;;4895004;29;20914;-70
2022/08/08 14:19:47;;;;;;;3.20;3.10;;;25.30;97.60;;;;;;4897271;29;20472;-69
2022/08/08 14:22:20;;;;;;;2.90;2.80;;;25.10;97.30;;;;;;4896906;29;20495;-69
2022/08/08 14:24:55;;;;;;;2.93;2.83;;;25.00;97.60;;;;;;4896205;29;20495;-69
2022/08/08 14:27:25;;;;;;;3.60;3.40;;;25.10;97.90;;;;;;4896435;29;20558;-69
2022/08/08 14:29:55;;;;;;;3.47;3.33;;;25.20;98.00;;;;;;4895212;29;21041;-69
2022/08/08 14:32:22;;;;;;;3.33;3.17;;;25.20;97.70;;;;;;4895753;29;20491;-68
2022/08/08 14:34:55;;;;;;;3.40;3.20;;;25.20;97.20;;;;;;4897114;29;20472;-68
2022/08/08 14:37:28;;;;;;;3.17;3.07;;;25.20;97.20;;;;;;4897757;29;20494;-69
2022/08/08 14:39:57;;;;;;;3.00;2.73;;;25.20;97.20;;;;;;4896404;29;20934;-70
2022/08/08 14:42:33;;;;;;;3.03;2.93;;;25.00;97.10;;;;;;4891643;29;20492;-68
2022/08/08 14:45:07;;;;;;;3.30;3.10;;;25.00;97.10;;;;;;4892067;29;20489;-69
2022/08/08 14:47:51;;;;;;;4.00;3.10;;;25.00;97.20;;;;;;4896214;29;20548;-69
2022/08/08 14:50:27;;;;;;;3.33;3.23;;;24.90;96.70;;;;;;4895527;29;20526;-68
2022/08/08 14:52:58;;;;;;;3.00;2.90;;;24.80;96.80;;;;;;4893261;29;20474;-68
2022/08/08 14:55:29;;;;;;;2.90;2.63;;;24.90;97.50;;;;;;4898347;29;20578;-68
2022/08/08 14:58:00;;;;;;;3.90;3.20;;;25.00;96.80;;;;;;4896752;29;20494;-69
2022/08/08 15:00:36;;;;;;;3.00;2.70;;;25.10;96.40;;;;;;4895946;29;20553;-68
2022/08/08 15:03:09;;;;;;;2.67;2.57;;;25.10;96.90;;;;;;4893171;29;20475;-68
2022/08/08 15:05:42;;;;;;;2.87;2.77;;;25.20;97.10;;;;;;4896596;29;20474;-69
2022/08/08 15:08:10;;;;;;;3.30;2.43;;;25.00;96.70;;;;;;4895512;29;20999;-68
2022/08/08 15:10:45;;;;;;;2.70;2.70;;;25.00;97.00;;;;;;4893860;29;20502;-68
2022/08/08 15:13:20;;;;;;;6.67;2.93;;;25.00;96.80;;;;;;4893961;29;20475;-69
2022/08/08 15:15:52;;;;;;;3.83;3.00;;;25.00;97.20;;;;;;4897794;29;20490;-69
2022/08/08 15:18:28;;;;;;;4.60;3.27;;;25.00;97.10;;;;;;4894659;29;20531;-68
2022/08/08 15:21:09;;;;;;;5.80;3.33;;;25.00;97.40;;;;;;4896522;29;20578;-68
2022/08/08 15:23:45;;;;;;;3.23;2.83;;;25.00;97.50;;;;;;4890286;29;21411;-68
2022/08/08 15:26:19;;;;;;;2.63;2.63;;;24.90;97.60;;;;;;4894613;29;20897;-69
2022/08/08 15:28:54;;;;;;;3.33;3.10;;;24.90;97.50;;;;;;4891355;29;20967;-68
2022/08/08 15:31:24;;;;;;;3.63;3.00;;;24.80;97.30;;;;;;4895354;29;20496;-70
2022/08/08 15:34:00;;;;;;;2.13;2.03;;;24.80;97.50;;;;;;4895922;29;20480;-68
2022/08/08 15:36:46;;;;;;;3.00;2.90;;;24.70;97.50;;;;;;4893687;29;20550;-69
2022/08/08 15:39:20;;;;;;;3.50;3.40;;;24.70;97.30;;;;;;4896071;29;20884;-69
2022/08/08 15:41:54;;;;;;;3.17;3.07;;;24.70;97.50;;;;;;4891174;29;20509;-69
2022/08/08 15:44:32;;;;;;;4.13;2.93;;;24.60;97.30;;;;;;4895276;29;20476;-69
2022/08/08 15:47:06;;;;;;;2.90;2.80;;;24.60;97.30;;;;;;4897431;29;20519;-69
2022/08/08 15:49:36;;;;;;;2.83;2.63;;;24.50;97.60;;;;;;4896664;29;20486;-69
2022/08/08 15:52:07;;;;;;;2.50;2.50;;;24.50;97.40;;;;;;4887129;29;21079;-69
2022/08/08 15:54:38;;;;;;;3.20;2.90;;;24.60;97.20;;;;;;4892763;29;20517;-69
2022/08/08 15:57:09;;;;;;;3.07;2.77;;;24.50;97.60;;;;;;4895260;29;20519;-68
2022/08/08 15:59:37;;;;;;;2.30;2.27;;;24.50;97.20;;;;;;4894965;29;20521;-69
2022/08/08 16:02:10;;;;;;;2.90;2.60;;;24.60;97.20;;;;;;4896124;29;20585;-70
2022/08/08 16:04:42;;;;;;;3.13;2.93;;;24.60;97.60;;;;;;4895662;29;20537;-70
2022/08/08 16:07:25;;;;;;;2.77;2.77;;;24.70;97.20;;;;;;4889570;29;20828;-70
2022/08/08 16:09:59;;;;;;;3.07;2.80;;;24.60;96.90;;;;;;4894436;29;20925;-69
2022/08/08 16:12:39;;;;;;;2.20;2.10;;;24.60;97.20;;;;;;4894772;29;20542;-69
2022/08/08 16:15:16;;;;;;;2.93;2.90;;;24.70;97.40;;;;;;4897424;29;20582;-68
2022/08/08 16:17:51;;;;;;;5.40;2.80;;;24.70;96.90;;;;;;4886703;29;20494;-68
2022/08/08 16:20:24;;;;;;;3.17;2.97;;;24.70;97.30;;;;;;4896140;29;20609;-68
2022/08/08 16:22:56;;;;;;;2.50;2.50;;;24.60;97.10;;;;;;4894025;29;20482;-70
2022/08/08 16:25:23;;;;;;;2.07;1.97;;;24.60;97.30;;;;;;4896199;23;20509;-71
2022/08/08 16:27:50;;;;;;;2.73;2.63;;;24.60;96.90;;;;;;4876691;29;20471;-73
2022/08/08 16:30:17;;;;;;;2.60;2.50;;;24.50;97.20;;;;;;4872948;29;20980;-71
2022/08/08 16:32:45;;;;;;;2.47;2.43;;;24.60;97.10;;;;;;4877105;29;20474;-72
2022/08/08 16:35:11;;;;;;;2.00;1.90;;;24.50;97.90;;;;;;4876233;29;20495;-71
2022/08/08 16:37:40;;;;;;;2.00;1.90;;;24.50;98.10;;;;;;4876415;29;20574;-72
2022/08/08 16:40:08;;;;;;;2.17;2.10;;;24.40;98.30;;;;;;4873297;29;20578;-72
2022/08/08 16:42:35;;;;;;;1.90;1.90;;;24.30;98.80;;;;;;4874876;29;20495;-71
2022/08/08 16:45:03;;;;;;;1.90;1.80;;;24.20;98.60;;;;;;4875863;29;20497;-71
2022/08/08 16:47:31;;;;;;;2.27;2.13;;;24.10;98.80;;;;;;4874375;29;20479;-72
2022/08/08 16:50:00;;;;;;;2.10;2.10;;;24.00;99.20;;;;;;4874357;29;20490;-71
2022/08/08 16:52:28;;;;;;;2.00;2.00;;;23.90;99.20;;;;;;4873608;29;20503;-72
2022/08/08 16:54:55;;;;;;;1.80;1.70;;;23.90;99.90;;;;;;4875770;29;20826;-70
2022/08/08 16:57:22;;;;;;;1.77;1.70;;;23.80;99.90;;;;;;4874865;29;20579;-70
2022/08/08 16:59:48;;;;;;;1.83;1.83;;;23.70;99.90;;;;;;4876799;29;20527;-71
2022/08/08 17:02:17;;;;;;;1.77;1.67;;;23.60;99.90;;;;;;4875717;29;20479;-71
2022/08/08 17:04:44;;;;;;;3.10;1.90;;;23.60;99.90;;;;;;4876047;29;20999;-70